createdAt,value
2022-09-20T00:01:28.813Z,9.23
2022-09-20T00:03:57.297Z,9.22
2022-09-20T00:06:26.696Z,9.26
2022-09-20T00:08:53.785Z,9.21
2022-09-20T00:11:28.836Z,9.22
2022-09-20T00:13:56.925Z,9.20
2022-09-20T00:16:29.940Z,9.19
2022-09-20T00:18:58.150Z,9.11
2022-09-20T00:21:27.373Z,9.05
2022-09-20T00:23:54.796Z,8.97
2022-09-20T00:26:21.949Z,8.93
2022-09-20T00:28:48.786Z,8.85
2022-09-20T00:31:16.006Z,8.84
2022-09-20T00:34:01.211Z,8.79
2022-09-20T00:36:27.993Z,8.83
2022-09-20T00:39:02.434Z,8.77
2022-09-20T00:41:30.922Z,8.72
2022-09-20T00:43:58.448Z,8.70
2022-09-20T00:46:41.149Z,8.77
2022-09-20T00:49:26.931Z,8.70
2022-09-20T00:51:57.996Z,8.76
2022-09-20T00:54:28.052Z,8.69
2022-09-20T00:56:54.756Z,8.69
2022-09-20T00:59:27.536Z,8.64
2022-09-20T01:01:59.046Z,8.71
2022-09-20T01:04:27.554Z,8.68
2022-09-20T01:06:58.210Z,8.72
2022-09-20T01:09:24.832Z,8.67
2022-09-20T01:11:52.297Z,8.77
2022-09-20T01:14:20.343Z,8.71
2022-09-20T01:16:47.080Z,8.59
2022-09-20T01:19:23.187Z,8.59
2022-09-20T01:21:50.363Z,8.60
2022-09-20T01:24:28.063Z,8.54
2022-09-20T01:27:18.969Z,8.55
2022-09-20T01:29:57.944Z,8.53
2022-09-20T01:32:34.830Z,8.56
2022-09-20T01:35:01.609Z,8.52
2022-09-20T01:37:36.815Z,8.53
2022-09-20T01:40:12.361Z,8.52
2022-09-20T01:42:44.161Z,8.46
2022-09-20T01:45:16.691Z,8.51
2022-09-20T01:48:08.294Z,8.41
2022-09-20T01:50:52.729Z,8.29
2022-09-20T01:53:47.225Z,8.26
2022-09-20T01:56:29.080Z,8.18
2022-09-20T01:59:24.089Z,8.17
2022-09-20T02:01:54.536Z,8.22
2022-09-20T02:04:40.578Z,8.21
2022-09-20T02:07:12.888Z,8.28
2022-09-20T02:10:07.743Z,8.44
2022-09-20T02:12:49.152Z,8.68
2022-09-20T02:15:52.081Z,8.86
2022-09-20T02:18:24.632Z,8.78
2022-09-20T02:21:05.386Z,8.78
2022-09-20T02:23:47.027Z,8.70
2022-09-20T02:26:45.071Z,8.66
2022-09-20T02:29:46.092Z,8.56
2022-09-20T02:32:16.626Z,8.52
2022-09-20T02:34:55.793Z,8.52
2022-09-20T02:38:12.106Z,8.52
2022-09-20T02:40:48.367Z,8.53
2022-09-20T02:43:33.668Z,8.49
2022-09-20T02:46:35.154Z,8.43
2022-09-20T02:49:04.824Z,8.38
2022-09-20T02:51:36.906Z,8.47
2022-09-20T02:54:18.185Z,8.36
2022-09-20T02:56:54.370Z,8.42
2022-09-20T02:59:42.414Z,8.45
2022-09-20T03:02:24.312Z,8.53
2022-09-20T03:05:19.609Z,8.70
2022-09-20T03:08:14.146Z,8.84
2022-09-20T03:10:55.914Z,8.91
2022-09-20T03:13:28.753Z,8.90
2022-09-20T03:16:09.353Z,8.89
2022-09-20T03:18:38.933Z,8.98
2022-09-20T03:21:47.299Z,8.90
2022-09-20T03:24:50.945Z,8.81
2022-09-20T03:27:31.005Z,8.77
2022-09-20T03:30:15.220Z,8.83
2022-09-20T03:32:41.774Z,8.88
2022-09-20T03:35:32.512Z,8.88
2022-09-20T03:38:14.326Z,8.84
2022-09-20T03:40:52.957Z,8.78
2022-09-20T03:43:56.780Z,8.84
2022-09-20T03:46:30.619Z,8.96
2022-09-20T03:49:09.346Z,8.95
2022-09-20T03:51:52.590Z,9.01
2022-09-20T03:54:19.261Z,9.10
2022-09-20T03:57:06.525Z,9.14
2022-09-20T04:00:12.137Z,9.15
2022-09-20T04:02:53.961Z,9.05
2022-09-20T04:05:40.989Z,9.11
2022-09-20T04:08:16.289Z,9.11
2022-09-20T04:10:50.436Z,9.13
2022-09-20T04:13:40.986Z,9.15
2022-09-20T04:16:32.856Z,9.14
2022-09-20T04:19:39.657Z,9.16
2022-09-20T04:22:07.710Z,9.15
2022-09-20T04:24:59.176Z,9.22
2022-09-20T04:27:30.080Z,9.23
2022-09-20T04:30:05.534Z,9.29
2022-09-20T04:33:09.076Z,9.34
2022-09-20T04:36:00.456Z,9.31
2022-09-20T04:38:27.567Z,9.26
2022-09-20T04:41:49.966Z,9.33
2022-09-20T04:44:52.803Z,9.29
2022-09-20T04:47:19.584Z,9.32
2022-09-20T04:49:52.233Z,9.44
2022-09-20T04:52:45.193Z,9.48
2022-09-20T04:55:30.624Z,9.62
2022-09-20T04:58:06.293Z,9.54
2022-09-20T05:01:11.169Z,9.64
2022-09-20T05:04:00.764Z,9.60
2022-09-20T05:06:58.941Z,9.58
2022-09-20T05:09:40.845Z,9.75
2022-09-20T05:12:38.157Z,9.80
2022-09-20T05:15:10.897Z,9.76
2022-09-20T05:17:44.821Z,9.83
2022-09-20T05:20:38.026Z,9.72
2022-09-20T05:23:14.003Z,9.62
2022-09-20T05:25:46.449Z,9.63
2022-09-20T05:28:34.467Z,9.65
2022-09-20T05:31:19.933Z,9.57
2022-09-20T05:34:18.181Z,9.63
2022-09-20T05:37:03.733Z,9.83
2022-09-20T05:39:50.157Z,9.71
2022-09-20T05:42:24.745Z,10.01
2022-09-20T05:44:57.204Z,10.05
2022-09-20T05:47:50.614Z,9.95
2022-09-20T05:50:35.976Z,9.88
2022-09-20T05:53:25.318Z,9.94
2022-09-20T05:56:03.347Z,10.09
2022-09-20T05:59:20.820Z,10.10
2022-09-20T06:02:10.303Z,10.21
2022-09-20T06:05:16.878Z,10.23
2022-09-20T06:07:47.520Z,10.18
2022-09-20T06:10:17.370Z,10.30
2022-09-20T06:12:58.027Z,10.25
2022-09-20T06:15:45.863Z,10.08
2022-09-20T06:18:21.487Z,9.99
2022-09-20T06:20:50.934Z,9.90
2022-09-20T06:23:18.438Z,9.91
2022-09-20T06:25:56.241Z,9.99
2022-09-20T06:28:34.334Z,10.01
2022-09-20T06:31:01.012Z,9.98
2022-09-20T06:33:29.056Z,10.04
2022-09-20T06:36:23.117Z,10.06
2022-09-20T06:39:53.022Z,10.12
2022-09-20T06:42:21.104Z,10.21
2022-09-20T06:44:49.847Z,10.28
2022-09-20T06:47:16.466Z,10.21
2022-09-20T06:49:44.625Z,10.17
2022-09-20T06:52:16.605Z,10.26
2022-09-20T06:54:47.541Z,10.22
2022-09-20T06:57:19.000Z,10.46
2022-09-20T06:59:45.844Z,10.53
2022-09-20T07:02:12.543Z,10.64
2022-09-20T07:04:40.121Z,10.81
2022-09-20T07:07:09.652Z,10.74
2022-09-20T07:09:36.529Z,10.67
2022-09-20T07:12:03.332Z,10.43
2022-09-20T07:14:30.033Z,10.61
2022-09-20T07:16:56.621Z,10.59
2022-09-20T07:19:23.525Z,10.65
2022-09-20T07:21:50.148Z,10.55
2022-09-20T07:24:16.782Z,10.58
2022-09-20T07:26:58.111Z,10.72
2022-09-20T07:29:25.775Z,10.72
2022-09-20T07:31:53.182Z,10.58
2022-09-20T07:34:20.433Z,10.63
2022-09-20T07:36:51.421Z,10.71
2022-09-20T07:39:18.633Z,10.54
2022-09-20T07:41:48.645Z,10.40
2022-09-20T07:44:21.633Z,10.43
2022-09-20T07:46:49.529Z,10.60
2022-09-20T07:49:16.235Z,10.75
2022-09-20T07:51:42.931Z,11.06
2022-09-20T07:54:10.735Z,11.09
2022-09-20T07:56:37.903Z,11.08
2022-09-20T07:59:04.646Z,11.01
2022-09-20T08:01:31.450Z,11.07
2022-09-20T08:03:58.110Z,10.97
2022-09-20T08:06:24.796Z,11.18
2022-09-20T08:08:51.808Z,11.00
2022-09-20T08:11:22.426Z,10.91
2022-09-20T08:14:17.806Z,10.94
2022-09-20T08:16:40.233Z,11.03
2022-09-20T08:19:06.946Z,11.33
2022-09-20T08:21:35.243Z,11.72
2022-09-20T08:24:02.101Z,11.75
2022-09-20T08:26:31.722Z,11.30
2022-09-20T08:28:59.708Z,11.17
2022-09-20T08:31:31.528Z,10.94
2022-09-20T08:33:59.309Z,10.82
2022-09-20T08:36:26.540Z,10.80
2022-09-20T08:41:48.456Z,10.70
2022-09-20T08:44:36.159Z,10.69
2022-09-20T08:47:18.081Z,10.62
2022-09-20T08:49:46.363Z,10.85
2022-09-20T08:52:23.755Z,11.13
2022-09-20T08:54:50.864Z,11.01
2022-09-20T08:57:18.957Z,11.03
2022-09-20T08:59:45.598Z,11.15
2022-09-20T09:02:20.332Z,11.30
2022-09-20T09:04:48.860Z,11.39
2022-09-20T09:07:21.871Z,11.67
2022-09-20T09:09:51.951Z,11.45
2022-09-20T09:12:31.122Z,11.45
2022-09-20T09:15:00.478Z,11.28
2022-09-20T09:17:28.933Z,11.42
2022-09-20T09:20:00.518Z,11.34
2022-09-20T09:22:36.869Z,11.36
2022-09-20T09:25:34.304Z,11.27
2022-09-20T09:28:04.002Z,11.36
2022-09-20T09:30:33.607Z,11.33
2022-09-20T09:33:25.383Z,11.17
2022-09-20T09:35:54.533Z,10.96
2022-09-20T09:38:33.294Z,10.83
2022-09-20T09:41:05.692Z,10.88
2022-09-20T09:43:35.630Z,10.92
2022-09-20T09:46:23.886Z,10.91
2022-09-20T09:49:10.590Z,11.03
2022-09-20T09:51:39.624Z,11.05
2022-09-20T09:54:08.240Z,11.04
2022-09-20T09:56:41.005Z,11.12
2022-09-20T09:59:51.717Z,11.15
2022-09-20T10:02:41.038Z,11.29
2022-09-20T10:05:35.469Z,11.35
2022-09-20T10:08:11.157Z,11.21
2022-09-20T10:11:03.171Z,11.34
2022-09-20T10:13:54.952Z,11.51
2022-09-20T10:16:46.549Z,11.48
2022-09-20T10:20:10.441Z,11.34
2022-09-20T10:23:51.521Z,11.36
2022-09-20T10:26:12.238Z,11.37
2022-09-20T10:28:48.731Z,11.11
2022-09-20T10:32:00.427Z,10.83
2022-09-20T10:34:39.480Z,10.74
2022-09-20T10:37:36.867Z,10.53
2022-09-20T10:40:16.666Z,10.42
2022-09-20T10:43:08.003Z,10.36
2022-09-20T10:46:31.732Z,10.46
2022-09-20T10:49:20.667Z,10.42
2022-09-20T10:52:16.498Z,10.38
2022-09-20T10:54:51.849Z,10.32
2022-09-20T10:57:18.670Z,10.35
2022-09-20T11:00:07.398Z,10.31
2022-09-20T11:02:42.304Z,10.32
2022-09-20T11:05:46.534Z,10.31
2022-09-20T11:08:19.088Z,10.31
2022-09-20T11:11:08.271Z,10.27
2022-09-20T11:13:45.827Z,10.33
2022-09-20T11:16:19.591Z,10.22
2022-09-20T11:18:55.521Z,10.18
2022-09-20T11:21:46.333Z,10.20
2022-09-20T11:24:20.898Z,10.23
2022-09-20T11:27:00.932Z,10.15
2022-09-20T11:29:40.820Z,10.13
2022-09-20T11:33:00.129Z,10.10
2022-09-20T11:35:42.448Z,10.07
2022-09-20T11:38:24.971Z,10.00
2022-09-20T11:41:27.998Z,9.93
2022-09-20T11:43:58.105Z,9.96
2022-09-20T11:46:34.749Z,9.91
2022-09-20T11:49:02.769Z,9.91
2022-09-20T11:51:52.232Z,9.93
2022-09-20T11:54:28.260Z,9.96
2022-09-20T11:56:57.163Z,9.97
2022-09-20T11:59:48.476Z,10.00
2022-09-20T12:02:27.462Z,10.09
2022-09-20T12:04:54.270Z,10.12
2022-09-20T12:07:26.248Z,10.24
2022-09-20T12:09:59.581Z,10.26
2022-09-20T12:12:43.406Z,10.17
2022-09-20T12:15:31.814Z,10.13
2022-09-20T12:17:58.336Z,10.25
2022-09-20T12:20:38.868Z,10.26
2022-09-20T12:23:40.612Z,10.23
2022-09-20T12:26:10.839Z,10.14
2022-09-20T12:28:39.144Z,10.10
2022-09-20T12:31:32.060Z,10.15
2022-09-20T12:34:02.398Z,10.26
2022-09-20T12:36:36.439Z,10.30
2022-09-20T12:39:13.061Z,10.41
2022-09-20T12:41:45.973Z,10.39
2022-09-20T12:44:43.696Z,10.11
2022-09-20T12:47:10.277Z,10.07
2022-09-20T12:50:08.087Z,9.99
2022-09-20T12:53:16.291Z,10.10
2022-09-20T12:56:07.674Z,10.09
2022-09-20T12:58:45.229Z,10.16
2022-09-20T13:01:14.392Z,10.15
2022-09-20T13:03:43.532Z,10.06
2022-09-20T13:06:12.359Z,10.03
2022-09-20T13:09:08.203Z,10.06
2022-09-20T13:11:54.443Z,10.06
2022-09-20T13:14:27.166Z,10.10
2022-09-20T13:17:03.673Z,10.21
2022-09-20T13:19:38.229Z,10.27
2022-09-20T13:22:16.328Z,10.34
2022-09-20T13:24:46.570Z,10.23
2022-09-20T13:27:24.545Z,10.26
2022-09-20T13:29:51.950Z,10.20
2022-09-20T13:32:30.536Z,10.22
2022-09-20T13:35:07.215Z,10.13
2022-09-20T13:37:34.599Z,10.12
2022-09-20T13:40:01.402Z,10.13
2022-09-20T13:42:30.051Z,10.10
2022-09-20T13:44:58.859Z,10.03
2022-09-20T13:47:30.348Z,10.11
2022-09-20T13:50:13.311Z,10.15
2022-09-20T13:52:46.178Z,10.13
2022-09-20T13:55:25.330Z,10.19
2022-09-20T13:57:53.312Z,10.21
2022-09-20T14:00:20.234Z,10.12
2022-09-20T14:02:48.353Z,10.12
2022-09-20T14:05:20.082Z,10.19
2022-09-20T14:07:48.073Z,10.28
2022-09-20T14:10:37.287Z,10.25
2022-09-20T14:13:07.274Z,10.23
2022-09-20T14:15:37.315Z,10.28
2022-09-20T14:18:04.564Z,10.12
2022-09-20T14:20:32.075Z,10.17
2022-09-20T14:22:59.323Z,10.16
2022-09-20T14:25:27.481Z,10.14
2022-09-20T14:28:06.616Z,10.13
2022-09-20T14:30:36.744Z,10.10
2022-09-20T14:33:05.308Z,10.19
2022-09-20T14:35:32.102Z,10.03
2022-09-20T14:38:10.310Z,10.04
2022-09-20T14:40:45.241Z,10.02
2022-09-20T14:43:34.656Z,10.06
2022-09-20T14:46:06.866Z,10.01
2022-09-20T14:48:35.755Z,10.00
2022-09-20T14:51:25.345Z,9.96
2022-09-20T14:54:13.758Z,9.95
2022-09-20T14:56:44.471Z,9.94
2022-09-20T14:59:17.119Z,9.96
2022-09-20T15:01:53.865Z,9.88
2022-09-20T15:04:22.802Z,9.82
2022-09-20T15:06:50.614Z,9.92
2022-09-20T15:09:18.711Z,9.83
2022-09-20T15:11:45.349Z,9.79
2022-09-20T15:14:11.979Z,9.77
2022-09-20T15:16:38.790Z,9.78
2022-09-20T15:19:08.063Z,9.72
2022-09-20T15:21:34.719Z,9.78
2022-09-20T15:24:01.605Z,9.76
2022-09-20T15:26:28.284Z,9.74
2022-09-20T15:28:54.874Z,9.74
2022-09-20T15:31:21.580Z,9.66
2022-09-20T15:33:48.236Z,9.63
2022-09-20T15:36:14.847Z,9.71
2022-09-20T15:38:41.433Z,9.78
2022-09-20T15:41:08.302Z,9.75
2022-09-20T15:43:34.939Z,9.76
2022-09-20T15:46:17.547Z,9.78
2022-09-20T15:48:44.159Z,9.77
2022-09-20T15:51:12.224Z,9.73
2022-09-20T15:53:46.006Z,9.76
2022-09-20T15:56:24.099Z,9.75
2022-09-20T15:58:52.343Z,9.69
2022-09-20T16:01:19.585Z,9.70
2022-09-20T16:03:46.842Z,9.75
2022-09-20T16:06:13.737Z,9.68
2022-09-20T16:08:41.878Z,9.77
2022-09-20T16:11:10.754Z,9.70
2022-09-20T16:13:37.825Z,9.71
2022-09-20T16:16:05.799Z,9.73
2022-09-20T16:18:51.067Z,9.73
2022-09-20T16:21:18.969Z,9.72
2022-09-20T16:23:53.091Z,9.72
2022-09-20T16:26:21.642Z,9.71
2022-09-20T16:28:49.313Z,9.70
2022-09-20T16:31:41.665Z,9.79
2022-09-20T16:34:31.375Z,9.70
2022-09-20T16:37:00.396Z,9.69
2022-09-20T16:39:28.204Z,9.72
2022-09-20T16:41:57.346Z,9.71
2022-09-20T16:44:24.446Z,9.69
2022-09-20T16:46:51.455Z,9.65
2022-09-20T16:49:18.207Z,9.69
2022-09-20T16:51:46.488Z,9.70
2022-09-20T16:54:17.070Z,9.76
2022-09-20T16:56:48.777Z,9.75
2022-09-20T16:59:17.321Z,9.76
2022-09-20T17:01:44.704Z,9.69
2022-09-20T17:04:14.392Z,9.63
2022-09-20T17:06:43.232Z,9.63
2022-09-20T17:09:11.127Z,9.61
2022-09-20T17:11:40.787Z,9.58
2022-09-20T17:14:09.502Z,9.52
2022-09-20T17:16:38.334Z,9.62
2022-09-20T17:19:11.140Z,9.59
2022-09-20T17:21:40.026Z,9.63
2022-09-20T17:24:07.659Z,9.61
2022-09-20T17:26:40.391Z,9.59
2022-09-20T17:29:10.044Z,9.59
2022-09-20T17:31:41.964Z,9.56
2022-09-20T17:34:11.167Z,9.41
2022-09-20T17:36:42.645Z,9.39
2022-09-20T17:39:12.256Z,9.37
2022-09-20T17:41:40.727Z,9.35
2022-09-20T17:44:11.966Z,9.29
2022-09-20T17:46:43.427Z,9.32
2022-09-20T17:49:15.838Z,9.31
2022-09-20T17:51:45.038Z,9.24
2022-09-20T17:54:13.968Z,9.15
2022-09-20T17:56:46.666Z,9.13
2022-09-20T17:59:16.269Z,9.14
2022-09-20T18:01:44.659Z,9.03
2022-09-20T18:04:11.670Z,8.96
2022-09-20T18:06:44.918Z,8.98
2022-09-20T18:09:14.723Z,8.88
2022-09-20T18:11:53.264Z,8.88
2022-09-20T18:14:31.556Z,8.73
2022-09-20T18:17:01.244Z,8.81
2022-09-20T18:19:37.532Z,8.74
2022-09-20T18:22:04.423Z,8.72
2022-09-20T18:24:31.668Z,8.70
2022-09-20T18:27:00.677Z,8.74
2022-09-20T18:29:33.688Z,8.73
2022-09-20T18:32:08.846Z,8.54
2022-09-20T18:34:35.604Z,8.80
2022-09-20T18:37:03.951Z,8.83
2022-09-20T18:42:40.130Z,8.77
2022-09-20T18:45:15.777Z,8.89
2022-09-20T18:47:45.188Z,8.84
2022-09-20T18:50:18.371Z,8.75
2022-09-20T18:52:45.018Z,8.53
2022-09-20T18:55:12.071Z,8.84
2022-09-20T18:57:41.849Z,8.92
2022-09-20T19:00:11.481Z,8.93
2022-09-20T19:02:50.200Z,8.95
2022-09-20T19:05:35.257Z,8.97
2022-09-20T19:08:04.925Z,8.99
2022-09-20T19:10:53.705Z,8.91
2022-09-20T19:13:32.447Z,8.98
2022-09-20T19:16:19.819Z,8.99
2022-09-20T19:19:17.930Z,8.96
2022-09-20T19:21:58.061Z,8.98
2022-09-20T19:24:43.485Z,8.95
2022-09-20T19:27:11.885Z,8.78
2022-09-20T19:29:39.118Z,8.81
2022-09-20T19:32:06.467Z,8.73
2022-09-20T19:34:33.449Z,8.72
2022-09-20T19:37:22.135Z,8.84
2022-09-20T19:40:09.025Z,8.87
2022-09-20T19:42:38.625Z,8.89
2022-09-20T19:45:15.613Z,8.85
2022-09-20T19:47:55.005Z,8.88
2022-09-20T19:50:33.257Z,8.63
2022-09-20T19:53:04.220Z,8.87
2022-09-20T19:55:32.554Z,8.69
2022-09-20T19:57:59.769Z,8.90
2022-09-20T20:00:26.669Z,8.81
2022-09-20T20:02:54.256Z,8.59
2022-09-20T20:05:25.687Z,8.85
2022-09-20T20:08:04.550Z,8.77
2022-09-20T20:10:51.446Z,8.77
2022-09-20T20:13:50.957Z,8.69
2022-09-20T20:16:25.228Z,8.50
2022-09-20T20:19:09.753Z,8.58
2022-09-20T20:21:58.431Z,8.62
2022-09-20T20:24:32.973Z,8.57
2022-09-20T20:26:59.630Z,8.49
2022-09-20T20:29:26.485Z,8.59
2022-09-20T20:31:53.076Z,8.44
2022-09-20T20:34:20.651Z,8.52
2022-09-20T20:36:48.449Z,8.44
2022-09-20T20:39:15.997Z,8.30
2022-09-20T20:41:43.042Z,8.17
2022-09-20T20:44:09.854Z,8.34
2022-09-20T20:46:37.375Z,8.39
2022-09-20T20:49:04.194Z,8.43
2022-09-20T20:51:33.025Z,8.36
2022-09-20T20:54:00.048Z,8.43
2022-09-20T20:56:30.477Z,8.41
2022-09-20T20:59:00.773Z,8.31
2022-09-20T21:01:31.781Z,8.25
2022-09-20T21:03:59.374Z,8.07
2022-09-20T21:06:32.023Z,7.85
2022-09-20T21:08:58.905Z,8.04
2022-09-20T21:11:27.899Z,8.24
2022-09-20T21:13:59.466Z,8.18
2022-09-20T21:16:48.744Z,8.23
2022-09-20T21:19:15.636Z,8.15
2022-09-20T21:21:43.566Z,8.19
2022-09-20T21:24:12.029Z,8.26
2022-09-20T21:26:39.854Z,8.20
2022-09-20T21:29:08.519Z,8.17
2022-09-20T21:31:37.205Z,8.22
2022-09-20T21:34:08.316Z,8.22
2022-09-20T21:36:36.360Z,8.24
2022-09-20T21:39:03.812Z,8.19
2022-09-20T21:41:32.601Z,8.18
2022-09-20T21:44:01.076Z,8.25
2022-09-20T21:46:39.508Z,8.35
2022-09-20T21:49:11.206Z,8.32
2022-09-20T21:51:38.921Z,8.34
2022-09-20T21:54:05.891Z,8.35
2022-09-20T21:56:35.116Z,8.21
2022-09-20T21:59:04.079Z,8.35
2022-09-20T22:01:36.205Z,8.27
2022-09-20T22:04:07.550Z,8.41
2022-09-20T22:06:42.210Z,8.38
2022-09-20T22:09:11.212Z,8.44
2022-09-20T22:11:40.781Z,8.52
2022-09-20T22:14:08.530Z,8.39
2022-09-20T22:16:37.993Z,8.20
2022-09-20T22:19:05.661Z,8.33
2022-09-20T22:21:37.884Z,8.25
2022-09-20T22:24:07.327Z,8.46
2022-09-20T22:26:36.630Z,8.51
2022-09-20T22:29:03.782Z,8.54
2022-09-20T22:31:32.102Z,8.59
2022-09-20T22:34:02.110Z,8.56
2022-09-20T22:36:31.411Z,8.59
2022-09-20T22:38:58.121Z,8.57
2022-09-20T22:41:25.537Z,8.50
2022-09-20T22:43:52.280Z,8.52
2022-09-20T22:46:21.729Z,8.56
2022-09-20T22:48:49.270Z,8.48
2022-09-20T22:51:18.302Z,8.57
2022-09-20T22:53:45.632Z,8.64
2022-09-20T22:56:18.671Z,8.66
2022-09-20T22:58:46.979Z,8.57
2022-09-20T23:01:16.363Z,8.59
2022-09-20T23:03:45.095Z,8.63
2022-09-20T23:06:17.016Z,8.66
2022-09-20T23:08:43.727Z,8.65
2022-09-20T23:11:10.615Z,8.51
2022-09-20T23:13:37.320Z,8.60
2022-09-20T23:16:31.779Z,8.59
2022-09-20T23:18:59.973Z,8.55
2022-09-20T23:21:27.205Z,8.62
2022-09-20T23:24:01.621Z,8.49
2022-09-20T23:26:30.107Z,8.49
2022-09-20T23:29:02.527Z,8.56
2022-09-20T23:31:30.521Z,8.65
2022-09-20T23:33:59.523Z,8.60
2022-09-20T23:36:29.761Z,8.60
2022-09-20T23:38:57.139Z,8.55
2022-09-20T23:41:25.746Z,8.60
2022-09-20T23:43:52.908Z,8.65
2022-09-20T23:46:21.387Z,8.56
2022-09-20T23:48:48.319Z,8.65
2022-09-20T23:51:17.478Z,8.61
2022-09-20T23:53:44.797Z,8.58
2022-09-20T23:56:12.086Z,8.45
2022-09-20T23:58:40.469Z,8.56
